Main page
METAR-TAF:

METAR-TAF

Airports :

Orange-Caritat Air Base

Orange, France

latitude: 44-08N, longitude: 004-50E, elevation: 60 m

Current weather observation

The report was made 43 minutes ago, at 10:30 UTC
Wind 8 kt from the North
Temperature
Pressure 1017 hPa
Visibility 10 km or more
no clouds below 1500 m and no cumulonimbus

METAR: LFMO 061030Z AUTO 35008KT CAVOK ///// Q1017 NOSIG

Time: 12:13 (11:13 UTC)

Forecast

The report was made 3 hours and 13 minutes ago, at 08:00 UTC
Forecast valid from 06 at 09 UTC to 07 at 09 UTC
Wind 12 kt from the North
Visibility 10 km or more
no clouds below 1500 m and no cumulonimbus

TAF: LFMO 060800Z 0609/0709 35012KT CAVOK TX10/0614Z TN02/0704Z

Weather observations and forecasts of more than 4000 airports (METAR and TAF reports).

The available stations are represented by yellow and red dots on the map.

Hover mouse over dot to see the name of the station.

Then click to see weather observations and forecasts.

To change the map : click on the green buttons with a black cross to zoom in, on the green button with a dash to zoom out, or on the green arrows for adjacent maps.


METAR-TAF: